createdAt,value
2023-02-23T00:01:54.266Z,65.60
2023-02-23T00:04:23.668Z,65.57
2023-02-23T00:06:52.554Z,64.90
2023-02-23T00:09:35.366Z,61.93
2023-02-23T00:12:08.410Z,58.87
2023-02-23T00:14:37.634Z,63.33
2023-02-23T00:17:04.684Z,62.40
2023-02-23T00:19:33.466Z,57.67
2023-02-23T00:22:01.254Z,65.37
2023-02-23T00:24:28.688Z,63.63
2023-02-23T00:26:55.556Z,64.67
2023-02-23T00:29:24.936Z,61.57
2023-02-23T00:31:56.065Z,59.67
2023-02-23T00:34:23.686Z,63.30
2023-02-23T00:36:54.462Z,63.77
2023-02-23T00:39:23.939Z,61.60
2023-02-23T00:41:52.581Z,61.80
2023-02-23T00:44:21.856Z,59.77
2023-02-23T00:46:51.334Z,58.53
2023-02-23T00:49:18.972Z,59.67
2023-02-23T00:51:46.024Z,58.73
2023-02-23T00:54:17.499Z,59.07
2023-02-23T00:56:45.871Z,53.53
2023-02-23T00:59:13.917Z,56.70
2023-02-23T01:16:14.668Z,54.60
2023-02-23T01:18:42.983Z,54.20
2023-02-23T01:21:23.121Z,52.47
2023-02-23T01:23:51.044Z,51.10
2023-02-23T01:26:22.950Z,51.90
2023-02-23T01:28:54.361Z,53.13
2023-02-23T01:31:22.503Z,49.33
2023-02-23T01:33:59.991Z,45.93
2023-02-23T01:36:33.247Z,50.40
2023-02-23T01:39:00.683Z,50.60
2023-02-23T01:41:28.834Z,45.00
2023-02-23T01:44:15.476Z,48.00
2023-02-23T01:46:45.469Z,46.40
2023-02-23T01:49:20.258Z,47.23
2023-02-23T01:51:50.347Z,48.17
2023-02-23T01:54:20.735Z,49.23
2023-02-23T01:56:57.918Z,47.27
2023-02-23T01:59:34.137Z,45.30
2023-02-23T02:02:01.397Z,47.63
2023-02-23T02:04:29.115Z,43.10
2023-02-23T02:07:03.794Z,43.17
2023-02-23T02:09:37.792Z,43.13
2023-02-23T02:12:08.446Z,43.57
2023-02-23T02:14:35.895Z,43.17
2023-02-23T02:17:27.491Z,48.13
2023-02-23T02:20:32.965Z,39.70
2023-02-23T02:23:33.747Z,40.13
2023-02-23T02:26:09.908Z,39.47
2023-02-23T02:28:51.603Z,40.47
2023-02-23T02:31:36.538Z,38.60
2023-02-23T02:34:15.964Z,38.30
2023-02-23T02:37:13.809Z,41.33
2023-02-23T02:40:16.213Z,40.57
2023-02-23T02:43:12.861Z,34.80
2023-02-23T02:46:07.419Z,33.23
2023-02-23T02:48:52.378Z,36.23
2023-02-23T02:51:25.998Z,34.27
2023-02-23T02:54:07.175Z,32.17
2023-02-23T02:56:41.849Z,33.30
2023-02-23T02:59:32.945Z,32.93
2023-02-23T03:02:18.773Z,32.00
2023-02-23T03:05:04.061Z,29.83
2023-02-23T03:08:02.324Z,31.07
2023-02-23T03:10:54.672Z,30.23
2023-02-23T03:14:14.895Z,38.13
2023-02-23T03:17:18.705Z,35.27
2023-02-23T03:20:16.034Z,36.70
2023-02-23T03:23:12.586Z,36.60
2023-02-23T03:26:09.590Z,38.00
2023-02-23T03:29:04.824Z,44.07
2023-02-23T03:32:05.371Z,59.27
2023-02-23T03:35:05.164Z,63.93
2023-02-23T03:37:57.230Z,63.60
2023-02-23T03:40:53.594Z,63.93
2023-02-23T03:43:46.712Z,72.87
2023-02-23T03:46:33.440Z,72.20
2023-02-23T03:49:20.803Z,81.30
2023-02-23T03:52:09.594Z,74.13
2023-02-23T03:55:03.000Z,75.43
2023-02-23T03:57:50.106Z,68.77
2023-02-23T04:00:41.048Z,68.17
2023-02-23T04:03:27.013Z,81.27
2023-02-23T04:06:14.364Z,73.87
2023-02-23T04:09:00.276Z,76.10
2023-02-23T04:12:04.106Z,76.43
2023-02-23T04:14:40.506Z,86.03
2023-02-23T04:17:08.521Z,77.30
2023-02-23T04:19:35.851Z,81.17
2023-02-23T04:22:02.675Z,84.50
2023-02-23T04:24:29.403Z,83.60
2023-02-23T04:26:56.415Z,83.53
2023-02-23T04:29:23.151Z,77.03
2023-02-23T04:31:50.128Z,79.97
2023-02-23T04:34:16.864Z,61.83
2023-02-23T04:36:43.572Z,55.73
2023-02-23T04:39:10.254Z,51.27
2023-02-23T04:41:37.105Z,48.53
2023-02-23T04:44:05.136Z,53.43
2023-02-23T04:46:33.144Z,47.87
2023-02-23T04:49:00.243Z,49.03
2023-02-23T04:51:32.388Z,47.23
2023-02-23T04:53:59.232Z,47.27
2023-02-23T04:56:26.113Z,44.33
2023-02-23T04:58:53.386Z,44.20
2023-02-23T05:01:22.617Z,48.77
2023-02-23T05:03:50.137Z,44.70
2023-02-23T05:06:19.911Z,46.53
2023-02-23T05:08:46.716Z,47.40
2023-02-23T05:11:13.923Z,41.17
2023-02-23T05:13:40.653Z,44.87
2023-02-23T05:16:07.907Z,44.73
2023-02-23T05:18:35.140Z,42.77
2023-02-23T05:21:06.077Z,47.70
2023-02-23T05:23:34.986Z,40.37
2023-02-23T05:26:04.286Z,42.83
2023-02-23T05:28:31.113Z,40.90
2023-02-23T05:30:58.018Z,39.97
2023-02-23T05:33:24.968Z,45.40
2023-02-23T05:35:52.298Z,44.10
2023-02-23T05:38:19.999Z,44.73
2023-02-23T05:40:46.718Z,45.30
2023-02-23T05:43:13.550Z,48.67
2023-02-23T05:45:41.657Z,43.13
2023-02-23T05:48:09.342Z,39.33
2023-02-23T05:50:36.595Z,42.77
2023-02-23T05:53:03.870Z,46.47
2023-02-23T05:55:30.975Z,46.10
2023-02-23T05:57:57.650Z,45.37
2023-02-23T06:00:24.727Z,43.77
2023-02-23T06:02:53.036Z,50.60
2023-02-23T06:05:20.151Z,49.43
2023-02-23T06:07:47.071Z,49.53
2023-02-23T06:10:14.547Z,45.63
2023-02-23T06:12:41.871Z,50.43
2023-02-23T06:15:09.477Z,50.00
2023-02-23T06:17:36.412Z,48.60
2023-02-23T06:20:05.135Z,51.07
2023-02-23T06:22:31.930Z,46.60
2023-02-23T06:24:58.735Z,51.40
2023-02-23T06:27:26.297Z,51.23
2023-02-23T06:29:53.517Z,48.00
2023-02-23T06:32:20.295Z,48.27
2023-02-23T06:34:49.709Z,50.80
2023-02-23T06:37:16.415Z,45.70
2023-02-23T06:39:43.321Z,48.17
2023-02-23T06:42:10.079Z,46.57
2023-02-23T06:44:37.194Z,47.30
2023-02-23T06:47:06.230Z,52.57
2023-02-23T06:49:33.370Z,50.57
2023-02-23T06:52:00.274Z,52.63
2023-02-23T06:54:27.052Z,50.30
2023-02-23T06:56:55.765Z,47.60
2023-02-23T06:59:24.059Z,51.63
2023-02-23T07:01:51.070Z,51.90
2023-02-23T07:04:18.069Z,45.93
2023-02-23T07:06:44.885Z,53.60
2023-02-23T07:09:11.876Z,61.13
2023-02-23T07:11:41.131Z,54.97
2023-02-23T07:14:15.395Z,49.93
2023-02-23T07:16:48.587Z,52.97
2023-02-23T07:19:15.379Z,55.63
2023-02-23T07:21:42.180Z,53.60
2023-02-23T07:24:09.086Z,54.87
2023-02-23T07:26:36.071Z,53.57
2023-02-23T07:29:05.574Z,56.20
2023-02-23T07:31:34.190Z,55.63
2023-02-23T07:34:10.680Z,55.23
2023-02-23T07:36:39.094Z,57.33
2023-02-23T07:39:05.781Z,58.97
2023-02-23T07:41:36.920Z,55.33
2023-02-23T07:44:03.833Z,58.40
2023-02-23T07:46:30.596Z,59.73
2023-02-23T07:48:57.349Z,61.83
2023-02-23T07:51:23.993Z,58.80
2023-02-23T07:53:50.810Z,57.37
2023-02-23T07:56:17.542Z,59.50
2023-02-23T08:01:36.701Z,61.13
2023-02-23T08:04:03.887Z,65.10
2023-02-23T08:06:31.709Z,60.87
2023-02-23T08:09:04.688Z,62.63
2023-02-23T08:11:32.546Z,63.00
2023-02-23T08:14:02.446Z,59.50
2023-02-23T08:16:30.853Z,61.60
2023-02-23T08:19:00.881Z,63.87
2023-02-23T08:21:29.644Z,64.57
2023-02-23T08:23:58.976Z,65.37
2023-02-23T08:26:26.243Z,66.47
2023-02-23T08:28:54.093Z,63.43
2023-02-23T08:31:24.722Z,62.17
2023-02-23T08:33:52.348Z,71.97
2023-02-23T08:36:20.997Z,72.17
2023-02-23T08:38:48.273Z,71.90
2023-02-23T08:41:15.821Z,81.87
2023-02-23T08:43:44.023Z,76.97
2023-02-23T08:46:11.788Z,73.57
2023-02-23T08:48:40.367Z,77.87
2023-02-23T08:51:08.555Z,73.13
2023-02-23T08:53:36.139Z,73.37
2023-02-23T08:56:06.150Z,75.77
2023-02-23T08:58:34.129Z,75.97
2023-02-23T09:01:01.235Z,80.60
2023-02-23T09:03:30.551Z,71.60
2023-02-23T09:05:59.293Z,70.90
2023-02-23T09:08:26.184Z,71.97
2023-02-23T09:10:53.782Z,75.23
2023-02-23T09:13:20.593Z,79.30
2023-02-23T09:15:48.172Z,77.10
2023-02-23T09:18:15.276Z,84.27
2023-02-23T09:20:43.946Z,79.23
2023-02-23T09:23:13.689Z,82.53
2023-02-23T09:25:44.726Z,76.27
2023-02-23T09:28:13.613Z,77.23
2023-02-23T09:30:41.738Z,75.43
2023-02-23T09:33:09.076Z,79.97
2023-02-23T09:35:36.987Z,71.30
2023-02-23T09:38:05.088Z,73.87
2023-02-23T09:40:43.798Z,75.53
2023-02-23T09:43:43.467Z,75.10
2023-02-23T09:46:29.456Z,87.40
2023-02-23T09:48:57.346Z,73.60
2023-02-23T09:51:25.070Z,76.83
2023-02-23T09:53:54.661Z,72.73
2023-02-23T09:56:30.129Z,75.57
2023-02-23T09:58:57.267Z,78.07
2023-02-23T10:01:46.269Z,69.53
2023-02-23T10:04:24.022Z,71.53
2023-02-23T10:07:12.437Z,68.40
2023-02-23T10:09:48.269Z,61.17
2023-02-23T10:12:43.058Z,68.47
2023-02-23T10:15:16.868Z,60.10
2023-02-23T10:18:03.500Z,59.87
2023-02-23T10:20:37.188Z,59.57
2023-02-23T10:23:08.401Z,62.07
2023-02-23T10:25:38.804Z,51.10
2023-02-23T10:28:05.800Z,50.00
2023-02-23T10:30:33.865Z,51.70
2023-02-23T10:33:19.897Z,43.77
2023-02-23T10:35:46.965Z,47.57
2023-02-23T10:38:16.631Z,53.27
2023-02-23T10:40:45.574Z,64.93
2023-02-23T10:43:13.245Z,58.37
2023-02-23T10:45:45.813Z,50.47
2023-02-23T10:48:33.584Z,48.50
2023-02-23T10:51:03.151Z,48.40
2023-02-23T10:53:37.585Z,47.40
2023-02-23T10:56:15.955Z,42.17
2023-02-23T10:58:55.261Z,39.13
2023-02-23T11:02:00.302Z,38.30
2023-02-23T11:04:30.804Z,39.20
2023-02-23T11:07:16.410Z,38.27
2023-02-23T11:09:47.481Z,38.43
2023-02-23T11:12:46.021Z,31.83
2023-02-23T11:15:35.268Z,32.47
2023-02-23T11:18:20.563Z,29.77
2023-02-23T11:20:48.149Z,31.47
2023-02-23T11:23:20.425Z,30.67
2023-02-23T11:25:49.510Z,37.97
2023-02-23T11:28:23.892Z,32.20
2023-02-23T11:30:51.802Z,34.40
2023-02-23T11:33:21.498Z,32.33
2023-02-23T11:35:49.287Z,30.77
2023-02-23T11:38:23.741Z,29.30
2023-02-23T11:41:03.349Z,35.33
2023-02-23T11:43:32.015Z,30.87
2023-02-23T11:46:01.012Z,34.13
2023-02-23T11:48:44.625Z,35.20
2023-02-23T11:51:11.393Z,34.17
2023-02-23T11:53:41.040Z,39.53
2023-02-23T11:56:12.587Z,31.43
2023-02-23T11:58:43.236Z,34.37
2023-02-23T12:01:13.896Z,35.30
2023-02-23T12:03:50.497Z,33.10
2023-02-23T12:06:37.011Z,37.07
2023-02-23T12:09:07.030Z,33.90
2023-02-23T12:11:45.119Z,40.93
2023-02-23T12:14:49.717Z,41.83
2023-02-23T12:17:19.628Z,40.23
2023-02-23T12:20:12.298Z,48.57
2023-02-23T12:22:43.521Z,45.33
2023-02-23T12:25:34.319Z,44.63
2023-02-23T12:28:27.959Z,42.10
2023-02-23T12:31:35.051Z,38.60
2023-02-23T12:34:09.516Z,39.10
2023-02-23T12:36:49.505Z,43.47
2023-02-23T12:39:36.586Z,49.60
2023-02-23T12:42:23.474Z,52.50
2023-02-23T12:44:57.223Z,54.20
2023-02-23T12:47:32.485Z,51.10
2023-02-23T12:50:07.777Z,49.50
2023-02-23T12:52:44.256Z,50.03
2023-02-23T12:55:13.398Z,48.13
2023-02-23T12:57:55.093Z,48.43
2023-02-23T13:00:59.005Z,56.63
2023-02-23T13:04:09.808Z,52.77
2023-02-23T13:06:48.870Z,50.90
2023-02-23T13:09:43.128Z,50.87
2023-02-23T13:12:28.183Z,52.80
2023-02-23T13:15:13.107Z,66.50
2023-02-23T13:17:51.223Z,55.37
2023-02-23T13:20:37.994Z,47.07
2023-02-23T13:23:10.846Z,123.27
2023-02-23T13:26:10.710Z,56.20
2023-02-23T13:28:52.857Z,56.60
2023-02-23T13:31:25.869Z,67.00
2023-02-23T13:33:54.834Z,58.20
2023-02-23T13:36:22.594Z,64.50
2023-02-23T13:39:18.571Z,129.90
2023-02-23T13:42:22.662Z,56.83
2023-02-23T13:45:24.333Z,46.13
2023-02-23T13:48:02.654Z,49.33
2023-02-23T13:50:49.446Z,381.00
2023-02-23T13:53:41.421Z,57.03
2023-02-23T13:56:18.939Z,52.43
2023-02-23T13:58:57.702Z,51.50
2023-02-23T14:01:32.254Z,51.60
2023-02-23T14:04:07.386Z,51.70
2023-02-23T14:06:34.577Z,53.17
2023-02-23T14:09:23.782Z,53.27
2023-02-23T14:12:19.442Z,56.60
2023-02-23T14:14:47.097Z,60.90
2023-02-23T14:17:19.152Z,53.83
2023-02-23T14:20:13.376Z,52.73
2023-02-23T14:23:28.330Z,51.93
2023-02-23T14:26:18.274Z,56.27
2023-02-23T14:28:49.306Z,54.73
2023-02-23T14:31:22.477Z,55.07
2023-02-23T14:33:53.349Z,54.90
2023-02-23T14:36:29.015Z,52.03
2023-02-23T14:38:56.540Z,56.60
2023-02-23T14:41:25.764Z,54.57
2023-02-23T14:44:29.982Z,52.83
2023-02-23T14:47:09.586Z,60.17
2023-02-23T14:49:41.062Z,54.73
2023-02-23T14:52:12.738Z,61.13
2023-02-23T14:54:40.812Z,51.33
2023-02-23T14:57:17.897Z,52.23
2023-02-23T14:59:45.987Z,48.53
2023-02-23T15:02:19.987Z,46.97
2023-02-23T15:04:47.091Z,50.47
2023-02-23T15:07:31.073Z,49.20
2023-02-23T15:09:59.430Z,49.77
2023-02-23T15:12:34.978Z,49.37
2023-02-23T15:15:03.881Z,41.30
2023-02-23T15:17:32.900Z,49.67
2023-02-23T15:20:15.477Z,45.53
2023-02-23T15:22:44.716Z,46.00
2023-02-23T15:25:24.076Z,49.27
2023-02-23T15:27:51.909Z,44.73
2023-02-23T15:30:20.283Z,40.83
2023-02-23T15:32:48.026Z,40.40
2023-02-23T15:35:16.625Z,42.50
2023-02-23T15:37:49.525Z,42.50
2023-02-23T15:40:25.018Z,43.90
2023-02-23T15:42:54.663Z,38.67
2023-02-23T15:45:30.288Z,38.43
2023-02-23T15:48:04.049Z,35.83
2023-02-23T15:50:40.826Z,38.00
2023-02-23T15:53:13.785Z,37.67
2023-02-23T15:55:43.776Z,41.07
2023-02-23T15:58:15.865Z,39.67
2023-02-23T16:00:44.849Z,37.23
2023-02-23T16:03:35.884Z,32.80
2023-02-23T16:06:06.946Z,32.33
2023-02-23T16:08:36.774Z,33.87
2023-02-23T16:11:07.842Z,35.90
2023-02-23T16:13:34.840Z,26.70
2023-02-23T16:16:02.300Z,30.23
2023-02-23T16:18:42.294Z,32.83
2023-02-23T16:21:16.942Z,29.97
2023-02-23T16:23:49.641Z,27.23
2023-02-23T16:26:25.819Z,19.97
2023-02-23T16:29:01.037Z,16.33
2023-02-23T16:31:49.569Z,17.77
2023-02-23T16:34:21.016Z,15.67
2023-02-23T16:36:57.738Z,25.00
2023-02-23T16:39:29.336Z,15.43
2023-02-23T16:41:58.634Z,14.67
2023-02-23T16:44:37.788Z,16.90
2023-02-23T16:47:09.680Z,17.33
2023-02-23T16:49:36.506Z,14.17
2023-02-23T16:52:06.895Z,12.40
2023-02-23T16:54:33.598Z,14.77
2023-02-23T16:57:00.366Z,17.90
2023-02-23T16:59:28.994Z,14.30
2023-02-23T17:01:55.739Z,14.03
2023-02-23T17:04:23.316Z,14.60
2023-02-23T17:06:55.681Z,18.63
2023-02-23T17:09:22.594Z,14.87
2023-02-23T17:11:49.344Z,19.87
2023-02-23T17:14:28.105Z,15.80
2023-02-23T17:16:55.155Z,13.87
2023-02-23T17:19:24.442Z,19.63
2023-02-23T17:21:53.236Z,20.80
2023-02-23T17:24:20.010Z,16.27
2023-02-23T17:26:47.033Z,22.63
2023-02-23T17:29:13.966Z,16.20
2023-02-23T17:31:43.042Z,17.73
2023-02-23T17:34:14.057Z,15.63
2023-02-23T17:36:45.245Z,12.23
2023-02-23T17:39:14.211Z,14.27
2023-02-23T17:41:41.792Z,12.87
2023-02-23T17:44:08.720Z,12.60
2023-02-23T17:46:36.081Z,16.17
2023-02-23T17:49:03.042Z,12.13
2023-02-23T17:51:29.889Z,12.47
2023-02-23T17:53:56.917Z,11.60
2023-02-23T17:56:24.234Z,12.93
2023-02-23T17:58:51.046Z,13.67
2023-02-23T18:01:19.823Z,11.67
2023-02-23T18:03:47.983Z,11.60
2023-02-23T18:06:16.897Z,12.23
2023-02-23T18:08:44.291Z,10.43
2023-02-23T18:11:11.450Z,10.63
2023-02-23T18:13:38.373Z,10.53
2023-02-23T18:16:13.197Z,13.50
2023-02-23T18:18:42.624Z,11.97
2023-02-23T18:21:21.152Z,12.23
2023-02-23T18:23:49.702Z,13.97
2023-02-23T18:26:23.394Z,15.27
2023-02-23T18:28:55.364Z,14.97
2023-02-23T18:31:30.424Z,18.17
2023-02-23T18:34:01.490Z,13.13
2023-02-23T18:36:37.755Z,15.93
2023-02-23T18:39:07.525Z,15.00
2023-02-23T18:41:37.468Z,16.33
2023-02-23T18:44:06.730Z,13.33
2023-02-23T18:46:34.315Z,17.77
2023-02-23T18:49:01.886Z,15.20
2023-02-23T18:51:33.713Z,13.80
2023-02-23T18:54:00.666Z,14.75
2023-02-23T18:56:32.985Z,18.00
2023-02-23T18:59:01.687Z,12.97
2023-02-23T19:01:31.288Z,11.53
2023-02-23T19:04:01.810Z,11.67
2023-02-23T19:06:34.095Z,15.20
2023-02-23T19:09:10.019Z,14.07
2023-02-23T19:12:03.210Z,13.30
2023-02-23T19:14:48.372Z,13.57
2023-02-23T19:17:15.957Z,13.67
2023-02-23T19:19:43.314Z,13.13
2023-02-23T19:22:10.991Z,15.30
2023-02-23T19:24:38.283Z,16.40
2023-02-23T19:27:05.413Z,17.83
2023-02-23T19:29:32.790Z,18.33
2023-02-23T19:32:00.615Z,17.43
2023-02-23T19:34:28.018Z,16.80
2023-02-23T19:37:00.734Z,19.37
2023-02-23T19:39:30.135Z,17.20
2023-02-23T19:42:00.884Z,23.80
2023-02-23T19:44:27.883Z,16.50
2023-02-23T19:46:54.807Z,16.37
2023-02-23T19:49:21.796Z,17.37
2023-02-23T19:51:55.773Z,17.83
2023-02-23T19:54:27.961Z,15.60
2023-02-23T19:56:57.730Z,18.20
2023-02-23T19:59:24.715Z,15.60
2023-02-23T20:01:51.803Z,24.50
2023-02-23T20:04:18.969Z,19.47
2023-02-23T20:06:47.195Z,17.60
2023-02-23T20:09:14.762Z,18.13
2023-02-23T20:11:42.905Z,18.27
2023-02-23T20:14:11.031Z,17.97
2023-02-23T20:16:38.525Z,19.87
2023-02-23T20:19:07.610Z,23.63
2023-02-23T20:21:34.848Z,19.77
2023-02-23T20:24:01.867Z,20.20
2023-02-23T20:26:31.276Z,25.30
2023-02-23T20:28:58.752Z,19.37
2023-02-23T20:31:32.719Z,21.00
2023-02-23T20:34:03.763Z,22.57
2023-02-23T20:36:33.031Z,20.13
2023-02-23T20:39:00.334Z,21.87
2023-02-23T20:41:34.269Z,21.20
2023-02-23T20:44:04.659Z,25.20
2023-02-23T20:46:31.923Z,19.13
2023-02-23T20:48:59.676Z,22.00
2023-02-23T20:51:27.050Z,20.80
2023-02-23T20:53:53.773Z,19.00
2023-02-23T20:56:21.872Z,17.00
2023-02-23T20:58:49.424Z,17.37
2023-02-23T21:01:22.776Z,15.00
2023-02-23T21:03:51.597Z,24.80
2023-02-23T21:06:20.078Z,16.93
2023-02-23T21:08:50.745Z,21.43
2023-02-23T21:11:20.264Z,29.23
2023-02-23T21:13:47.572Z,16.50
2023-02-23T21:16:16.971Z,23.10
2023-02-23T21:18:44.634Z,30.60
2023-02-23T21:21:11.769Z,32.67
2023-02-23T21:23:40.032Z,26.23
2023-02-23T21:26:16.362Z,29.80
2023-02-23T21:28:44.488Z,30.40
2023-02-23T21:31:12.749Z,31.63
2023-02-23T21:33:41.880Z,26.10
2023-02-23T21:36:10.769Z,30.83
2023-02-23T21:38:38.769Z,37.10
2023-02-23T21:41:06.254Z,33.00
2023-02-23T21:43:37.517Z,27.20
2023-02-23T21:46:12.024Z,26.27
2023-02-23T21:48:38.955Z,33.40
2023-02-23T21:51:07.548Z,31.80
2023-02-23T21:53:35.024Z,37.97
2023-02-23T21:56:16.677Z,35.43
2023-02-23T21:58:51.210Z,41.03
2023-02-23T22:01:21.234Z,25.57
2023-02-23T22:03:48.693Z,35.47
2023-02-23T22:06:17.727Z,33.77
2023-02-23T22:08:45.794Z,43.03
2023-02-23T22:11:17.295Z,35.00
2023-02-23T22:13:45.729Z,29.87
2023-02-23T22:16:14.494Z,35.70
2023-02-23T22:18:42.425Z,33.93
2023-02-23T22:21:11.743Z,26.97
2023-02-23T22:23:43.892Z,30.30
2023-02-23T22:26:11.034Z,32.03
2023-02-23T22:28:37.911Z,33.73
2023-02-23T22:31:10.990Z,28.37
2023-02-23T22:33:41.841Z,27.13
2023-02-23T22:36:10.794Z,33.20
2023-02-23T22:38:37.867Z,30.63
2023-02-23T22:41:11.688Z,37.73
2023-02-23T22:43:45.917Z,28.73
2023-02-23T22:46:13.867Z,24.03
2023-02-23T22:48:45.352Z,29.40
2023-02-23T22:51:13.702Z,30.37
2023-02-23T22:53:40.573Z,26.60
2023-02-23T22:56:07.658Z,31.77
2023-02-23T22:58:34.693Z,26.80
2023-02-23T23:01:04.757Z,26.77
2023-02-23T23:03:41.916Z,24.67
2023-02-23T23:06:10.737Z,25.70
2023-02-23T23:08:40.621Z,19.27
2023-02-23T23:11:15.321Z,21.93
2023-02-23T23:13:45.490Z,13.27
2023-02-23T23:16:31.042Z,19.43
2023-02-23T23:19:12.167Z,12.47
2023-02-23T23:21:41.129Z,14.00
2023-02-23T23:24:16.018Z,17.87
2023-02-23T23:26:44.429Z,13.53
2023-02-23T23:29:13.870Z,12.10
2023-02-23T23:31:45.323Z,14.73
2023-02-23T23:34:13.178Z,20.47
2023-02-23T23:36:49.407Z,19.13
2023-02-23T23:39:22.550Z,18.87
2023-02-23T23:41:50.265Z,17.07
2023-02-23T23:44:21.743Z,17.97
2023-02-23T23:46:52.960Z,23.50
2023-02-23T23:49:21.980Z,13.73
2023-02-23T23:51:50.913Z,12.87
2023-02-23T23:54:26.115Z,16.23
2023-02-23T23:56:53.370Z,17.77
2023-02-23T23:59:22.846Z,19.63
